sensor_id;sensor_type;location;lat;lon;timestamp;pressure;altitude;pressure_sealevel;temperature;humidity
72116;BME280;59991;52.140;5.428;2022-09-02T00:00:20;101811.78;;;16.15;51.34
72116;BME280;59991;52.140;5.428;2022-09-02T00:00:54;101817.66;;;16.13;51.14
72116;BME280;59991;52.140;5.428;2022-09-02T00:01:35;101821.59;;;16.16;51.58
72116;BME280;59991;52.140;5.428;2022-09-02T00:02:08;101813.34;;;16.16;51.84
72116;BME280;59991;52.140;5.428;2022-09-02T00:02:39;101820.03;;;16.15;52.13
72116;BME280;59991;52.140;5.428;2022-09-02T00:03:12;101820.81;;;16.15;51.49
72116;BME280;59991;52.140;5.428;2022-09-02T00:03:44;101823.56;;;16.12;51.53
72116;BME280;59991;52.140;5.428;2022-09-02T00:04:19;101819.63;;;16.13;51.51
72116;BME280;59991;52.140;5.428;2022-09-02T00:04:51;101818.06;;;16.12;51.89
72116;BME280;59991;52.140;5.428;2022-09-02T00:06:13;101818.06;;;16.12;51.88
72116;BME280;59991;52.140;5.428;2022-09-02T00:06:46;101816.47;;;16.11;52.08
72116;BME280;59991;52.140;5.428;2022-09-02T00:07:17;101817.25;;;16.11;51.93
72116;BME280;59991;52.140;5.428;2022-09-02T00:07:49;101815.69;;;16.10;52.17
72116;BME280;59991;52.140;5.428;2022-09-02T00:08:20;101815.69;;;16.10;52.26
72116;BME280;59991;52.140;5.428;2022-09-02T00:08:52;101821.19;;;16.10;51.73
72116;BME280;59991;52.140;5.428;2022-09-02T00:09:24;101814.13;;;16.09;52.05
72116;BME280;59991;52.140;5.428;2022-09-02T00:09:56;101817.66;;;16.10;51.80
72116;BME280;59991;52.140;5.428;2022-09-02T00:10:27;101818.81;;;16.09;51.81
72116;BME280;59991;52.140;5.428;2022-09-02T00:11:00;101814.50;;;16.08;52.13
72116;BME280;59991;52.140;5.428;2022-09-02T00:11:35;101812.94;;;16.07;51.71
72116;BME280;59991;52.140;5.428;2022-09-02T00:12:07;101818.44;;;16.07;51.81
72116;BME280;59991;52.140;5.428;2022-09-02T00:12:39;101809.78;;;16.05;51.67
72116;BME280;59991;52.140;5.428;2022-09-02T00:13:13;101819.59;;;16.06;51.65
72116;BME280;59991;52.140;5.428;2022-09-02T00:13:45;101814.50;;;16.04;51.90
72116;BME280;59991;52.140;5.428;2022-09-02T00:14:23;101813.31;;;16.02;52.10
72116;BME280;59991;52.140;5.428;2022-09-02T00:14:55;101813.31;;;16.02;52.17
72116;BME280;59991;52.140;5.428;2022-09-02T00:15:26;101810.97;;;15.97;51.59
72116;BME280;59991;52.140;5.428;2022-09-02T00:15:59;101810.97;;;15.97;51.51
72116;BME280;59991;52.140;5.428;2022-09-02T00:17:22;101808.59;;;15.99;51.76
72116;BME280;59991;52.140;5.428;2022-09-02T00:17:53;101816.84;;;15.99;52.20
72116;BME280;59991;52.140;5.428;2022-09-02T00:18:49;101810.97;;;15.97;51.58
72116;BME280;59991;52.140;5.428;2022-09-02T00:19:23;101817.63;;;15.96;52.18
72116;BME280;59991;52.140;5.428;2022-09-02T00:19:55;101813.31;;;15.95;52.09
72116;BME280;59991;52.140;5.428;2022-09-02T00:20:28;101811.34;;;15.95;52.41
72116;BME280;59991;52.140;5.428;2022-09-02T00:21:18;101813.72;;;15.97;52.24
72116;BME280;59991;52.140;5.428;2022-09-02T00:21:52;101809.00;;;15.94;51.61
72116;BME280;59991;52.140;5.428;2022-09-02T00:22:24;101810.56;;;15.95;52.35
72116;BME280;59991;52.140;5.428;2022-09-02T00:22:56;101813.31;;;15.95;52.58
72116;BME280;59991;52.140;5.428;2022-09-02T00:23:27;101815.28;;;15.94;52.57
72116;BME280;59991;52.140;5.428;2022-09-02T00:24:03;101816.84;;;15.95;52.48
72116;BME280;59991;52.140;5.428;2022-09-02T00:24:52;101811.75;;;15.94;52.01
72116;BME280;59991;52.140;5.428;2022-09-02T00:25:24;101817.25;;;15.94;52.35
72116;BME280;59991;52.140;5.428;2022-09-02T00:25:56;101810.16;;;15.93;52.35
72116;BME280;59991;52.140;5.428;2022-09-02T00:26:28;101806.63;;;15.92;52.36
72116;BME280;59991;52.140;5.428;2022-09-02T00:26:59;101812.50;;;15.91;52.45
72116;BME280;59991;52.140;5.428;2022-09-02T00:27:31;101815.66;;;15.89;52.22
72116;BME280;59991;52.140;5.428;2022-09-02T00:28:02;101804.66;;;15.89;52.21
72116;BME280;59991;52.140;5.428;2022-09-02T00:28:37;101809.38;;;15.88;52.53
72116;BME280;59991;52.140;5.428;2022-09-02T00:29:11;101814.06;;;15.88;52.92
72116;BME280;59991;52.140;5.428;2022-09-02T00:29:44;101814.88;;;15.88;52.73
72116;BME280;59991;52.140;5.428;2022-09-02T00:30:34;101812.91;;;15.89;52.44
72116;BME280;59991;52.140;5.428;2022-09-02T00:31:06;101818.00;;;15.87;52.16
72116;BME280;59991;52.140;5.428;2022-09-02T00:31:37;101808.19;;;15.86;51.68
72116;BME280;59991;52.140;5.428;2022-09-02T00:32:09;101814.84;;;15.85;52.08
72116;BME280;59991;52.140;5.428;2022-09-02T00:33:00;101818.78;;;15.84;52.68
72116;BME280;59991;52.140;5.428;2022-09-02T00:33:31;101816.78;;;15.81;52.51
72116;BME280;59991;52.140;5.428;2022-09-02T00:34:04;101819.94;;;15.79;51.89
72116;BME280;59991;52.140;5.428;2022-09-02T00:34:36;101820.31;;;15.78;52.48
72116;BME280;59991;52.140;5.428;2022-09-02T00:35:08;101811.31;;;15.77;52.22
72116;BME280;59991;52.140;5.428;2022-09-02T00:35:40;101820.31;;;15.78;52.42
72116;BME280;59991;52.140;5.428;2022-09-02T00:36:12;101815.59;;;15.78;52.66
72116;BME280;59991;52.140;5.428;2022-09-02T00:36:44;101814.81;;;15.78;52.33
72116;BME280;59991;52.140;5.428;2022-09-02T00:37:15;101813.25;;;15.73;53.09
72116;BME280;59991;52.140;5.428;2022-09-02T00:37:47;101814.44;;;15.79;53.20
72116;BME280;59991;52.140;5.428;2022-09-02T00:38:19;101813.66;;;15.79;53.63
72116;BME280;59991;52.140;5.428;2022-09-02T00:38:50;101810.09;;;15.78;53.06
72116;BME280;59991;52.140;5.428;2022-09-02T00:39:22;101810.91;;;15.79;52.91
72116;BME280;59991;52.140;5.428;2022-09-02T00:39:53;101811.69;;;15.76;52.39
72116;BME280;59991;52.140;5.428;2022-09-02T00:40:26;101822.31;;;15.77;52.59
72116;BME280;59991;52.140;5.428;2022-09-02T00:41:00;101811.31;;;15.77;53.21
72116;BME280;59991;52.140;5.428;2022-09-02T00:41:32;101810.91;;;15.75;53.15
72116;BME280;59991;52.140;5.428;2022-09-02T00:42:05;101805.41;;;15.75;52.92
72116;BME280;59991;52.140;5.428;2022-09-02T00:42:37;101809.75;;;15.76;53.00
72116;BME280;59991;52.140;5.428;2022-09-02T00:43:08;101816.41;;;15.75;53.31
72116;BME280;59991;52.140;5.428;2022-09-02T00:43:50;101812.88;;;15.75;52.71
72116;BME280;59991;52.140;5.428;2022-09-02T00:44:21;101808.53;;;15.74;52.93
72116;BME280;59991;52.140;5.428;2022-09-02T00:44:53;101808.94;;;15.72;52.64
72116;BME280;59991;52.140;5.428;2022-09-02T00:45:43;101798.72;;;15.73;52.74
72116;BME280;59991;52.140;5.428;2022-09-02T00:46:19;101810.09;;;15.71;52.13
72116;BME280;59991;52.140;5.428;2022-09-02T00:46:52;101806.97;;;15.69;52.25
72116;BME280;59991;52.140;5.428;2022-09-02T00:47:23;101805.75;;;15.67;52.97
72116;BME280;59991;52.140;5.428;2022-09-02T00:47:56;101805.38;;;15.65;53.23
72116;BME280;59991;52.140;5.428;2022-09-02T00:48:27;101800.66;;;15.65;52.11
72116;BME280;59991;52.140;5.428;2022-09-02T00:49:27;101802.59;;;15.61;52.36
72116;BME280;59991;52.140;5.428;2022-09-02T00:49:59;101799.84;;;15.61;53.03
72116;BME280;59991;52.140;5.428;2022-09-02T00:50:34;101805.34;;;15.61;53.06
72116;BME280;59991;52.140;5.428;2022-09-02T00:52:03;101808.09;;;15.61;53.29
72116;BME280;59991;52.140;5.428;2022-09-02T00:52:50;101805.72;;;15.60;53.20
72116;BME280;59991;52.140;5.428;2022-09-02T00:53:24;101796.31;;;15.57;52.65
72116;BME280;59991;52.140;5.428;2022-09-02T00:53:56;101805.75;;;15.56;52.85
72116;BME280;59991;52.140;5.428;2022-09-02T00:54:30;101811.59;;;15.54;52.86
72116;BME280;59991;52.140;5.428;2022-09-02T00:55:42;101810.81;;;15.54;53.29
72116;BME280;59991;52.140;5.428;2022-09-02T00:56:20;101800.19;;;15.52;53.02
72116;BME280;59991;52.140;5.428;2022-09-02T00:56:53;101806.88;;;15.55;53.17
72116;BME280;59991;52.140;5.428;2022-09-02T00:57:32;101798.25;;;15.53;52.91
72116;BME280;59991;52.140;5.428;2022-09-02T00:58:08;101801.78;;;15.53;53.36
72116;BME280;59991;52.140;5.428;2022-09-02T00:58:44;101805.69;;;15.52;53.58
72116;BME280;59991;52.140;5.428;2022-09-02T00:59:23;101808.44;;;15.52;53.50
72116;BME280;59991;52.140;5.428;2022-09-02T01:00:07;101798.63;;;15.51;52.79
72116;BME280;59991;52.140;5.428;2022-09-02T01:00:41;101801.38;;;15.51;52.67
72116;BME280;59991;52.140;5.428;2022-09-02T01:01:31;101798.59;;;15.48;53.32
72116;BME280;59991;52.140;5.428;2022-09-02T01:02:03;101791.94;;;15.49;53.58
72116;BME280;59991;52.140;5.428;2022-09-02T01:02:38;101802.94;;;15.49;53.80
72116;BME280;59991;52.140;5.428;2022-09-02T01:03:15;101795.06;;;15.47;53.49
72116;BME280;59991;52.140;5.428;2022-09-02T01:03:48;101793.91;;;15.48;53.68
72116;BME280;59991;52.140;5.428;2022-09-02T01:04:20;101790.75;;;15.50;53.75
72116;BME280;59991;52.140;5.428;2022-09-02T01:04:52;101791.94;;;15.49;54.04
72116;BME280;59991;52.140;5.428;2022-09-02T01:05:28;101791.56;;;15.50;53.45
72116;BME280;59991;52.140;5.428;2022-09-02T01:06:00;101795.09;;;15.51;53.80
72116;BME280;59991;52.140;5.428;2022-09-02T01:06:32;101785.66;;;15.48;53.57
72116;BME280;59991;52.140;5.428;2022-09-02T01:07:05;101792.72;;;15.49;53.27
72116;BME280;59991;52.140;5.428;2022-09-02T01:07:38;101788.78;;;15.47;54.08
72116;BME280;59991;52.140;5.428;2022-09-02T01:08:13;101781.72;;;15.46;53.93
72116;BME280;59991;52.140;5.428;2022-09-02T01:08:48;101793.09;;;15.48;53.98
72116;BME280;59991;52.140;5.428;2022-09-02T01:09:24;101785.63;;;15.45;53.75
72116;BME280;59991;52.140;5.428;2022-09-02T01:09:56;101786.03;;;15.47;53.66
72116;BME280;59991;52.140;5.428;2022-09-02T01:10:30;101774.63;;;15.45;54.23
72116;BME280;59991;52.140;5.428;2022-09-02T01:11:05;101788.00;;;15.46;53.63
72116;BME280;59991;52.140;5.428;2022-09-02T01:11:44;101786.41;;;15.42;53.57
72116;BME280;59991;52.140;5.428;2022-09-02T01:12:18;101787.97;;;15.43;53.76
72116;BME280;59991;52.140;5.428;2022-09-02T01:12:54;101778.16;;;15.38;53.51
72116;BME280;59991;52.140;5.428;2022-09-02T01:13:30;101784.81;;;15.41;53.56
72116;BME280;59991;52.140;5.428;2022-09-02T01:14:21;101788.00;;;15.39;53.26
72116;BME280;59991;52.140;5.428;2022-09-02T01:14:53;101783.66;;;15.38;53.41
72116;BME280;59991;52.140;5.428;2022-09-02T01:15:25;101784.84;;;15.37;53.66
72116;BME280;59991;52.140;5.428;2022-09-02T01:16:39;101787.97;;;15.36;53.73
72116;BME280;59991;52.140;5.428;2022-09-02T01:17:12;101786.38;;;15.35;53.66
72116;BME280;59991;52.140;5.428;2022-09-02T01:17:52;101789.53;;;15.37;53.73
72116;BME280;59991;52.140;5.428;2022-09-02T01:18:27;101784.84;;;15.37;53.83
72116;BME280;59991;52.140;5.428;2022-09-02T01:19:02;101787.97;;;15.36;53.24
72116;BME280;59991;52.140;5.428;2022-09-02T01:19:43;101790.69;;;15.32;53.76
72116;BME280;59991;52.140;5.428;2022-09-02T01:20:21;101784.00;;;15.30;53.54
72116;BME280;59991;52.140;5.428;2022-09-02T01:20:57;101785.59;;;15.31;53.83
72116;BME280;59991;52.140;5.428;2022-09-02T01:21:29;101784.41;;;15.28;53.22
72116;BME280;59991;52.140;5.428;2022-09-02T01:22:05;101785.19;;;15.29;53.39
72116;BME280;59991;52.140;5.428;2022-09-02T01:22:37;101788.72;;;15.29;53.95
72116;BME280;59991;52.140;5.428;2022-09-02T01:23:09;101782.44;;;15.29;54.02
72116;BME280;59991;52.140;5.428;2022-09-02T01:23:42;101784.78;;;15.30;53.80
72116;BME280;59991;52.140;5.428;2022-09-02T01:24:14;101787.94;;;15.29;53.85
72116;BME280;59991;52.140;5.428;2022-09-02T01:24:46;101785.19;;;15.29;54.46
72116;BME280;59991;52.140;5.428;2022-09-02T01:25:21;101784.78;;;15.30;54.24
72116;BME280;59991;52.140;5.428;2022-09-02T01:25:54;101789.91;;;15.32;53.43
72116;BME280;59991;52.140;5.428;2022-09-02T01:26:44;101787.53;;;15.30;53.66
72116;BME280;59991;52.140;5.428;2022-09-02T01:27:17;101784.78;;;15.30;54.14
72116;BME280;59991;52.140;5.428;2022-09-02T01:27:49;101782.06;;;15.30;54.31
72116;BME280;59991;52.140;5.428;2022-09-02T01:28:21;101782.44;;;15.29;54.10
72116;BME280;59991;52.140;5.428;2022-09-02T01:28:53;101781.66;;;15.32;54.28
72116;BME280;59991;52.140;5.428;2022-09-02T01:29:26;101787.56;;;15.34;53.88
72116;BME280;59991;52.140;5.428;2022-09-02T01:29:59;101782.06;;;15.34;53.70
72116;BME280;59991;52.140;5.428;2022-09-02T01:30:31;101784.78;;;15.30;53.61
72116;BME280;59991;52.140;5.428;2022-09-02T01:31:03;101788.31;;;15.27;53.68
72116;BME280;59991;52.140;5.428;2022-09-02T01:31:35;101785.94;;;15.26;54.05
72116;BME280;59991;52.140;5.428;2022-09-02T01:32:07;101783.19;;;15.26;54.26
72116;BME280;59991;52.140;5.428;2022-09-02T01:32:39;101784.78;;;15.27;54.06
72116;BME280;59991;52.140;5.428;2022-09-02T01:33:10;101784.78;;;15.27;54.29
72116;BME280;59991;52.140;5.428;2022-09-02T01:34:00;101782.03;;;15.27;54.20
72116;BME280;59991;52.140;5.428;2022-09-02T01:34:31;101777.69;;;15.26;54.24
72116;BME280;59991;52.140;5.428;2022-09-02T01:35:03;101776.91;;;15.25;54.16
72116;BME280;59991;52.140;5.428;2022-09-02T01:35:35;101780.06;;;15.27;53.88
72116;BME280;59991;52.140;5.428;2022-09-02T01:36:07;101778.50;;;15.26;54.84
72116;BME280;59991;52.140;5.428;2022-09-02T01:36:41;101776.16;;;15.28;54.35
72116;BME280;59991;52.140;5.428;2022-09-02T01:37:12;101777.72;;;15.29;54.13
72116;BME280;59991;52.140;5.428;2022-09-02T01:37:45;101769.06;;;15.27;54.30
72116;BME280;59991;52.140;5.428;2022-09-02T01:38:26;101776.94;;;15.29;54.40
72116;BME280;59991;52.140;5.428;2022-09-02T01:38:58;101770.66;;;15.28;54.80
72116;BME280;59991;52.140;5.428;2022-09-02T01:39:29;101776.53;;;15.27;54.04
72116;BME280;59991;52.140;5.428;2022-09-02T01:40:01;101772.22;;;15.26;54.74
72116;BME280;59991;52.140;5.428;2022-09-02T01:40:33;101772.59;;;15.24;53.99
72116;BME280;59991;52.140;5.428;2022-09-02T01:41:05;101770.63;;;15.25;53.72
72116;BME280;59991;52.140;5.428;2022-09-02T01:41:36;101773.00;;;15.26;54.18
72116;BME280;59991;52.140;5.428;2022-09-02T01:42:08;101771.00;;;15.23;53.85
72116;BME280;59991;52.140;5.428;2022-09-02T01:42:40;101772.19;;;15.22;53.69
72116;BME280;59991;52.140;5.428;2022-09-02T01:43:18;101765.91;;;15.21;54.11
72116;BME280;59991;52.140;5.428;2022-09-02T01:43:49;101775.31;;;15.20;54.31
72116;BME280;59991;52.140;5.428;2022-09-02T01:44:21;101771.03;;;15.19;54.15
72116;BME280;59991;52.140;5.428;2022-09-02T01:44:52;101767.50;;;15.19;54.63
72116;BME280;59991;52.140;5.428;2022-09-02T01:45:24;101766.69;;;15.18;54.42
72116;BME280;59991;52.140;5.428;2022-09-02T01:45:57;101768.28;;;15.19;54.56
72116;BME280;59991;52.140;5.428;2022-09-02T01:46:29;101765.13;;;15.17;54.28
72116;BME280;59991;52.140;5.428;2022-09-02T01:48:12;101769.03;;;15.16;54.50
72116;BME280;59991;52.140;5.428;2022-09-02T01:48:49;101761.59;;;15.17;53.98
72116;BME280;59991;52.140;5.428;2022-09-02T01:49:23;101766.31;;;15.16;54.49
72116;BME280;59991;52.140;5.428;2022-09-02T01:49:57;101767.09;;;15.17;54.09
72116;BME280;59991;52.140;5.428;2022-09-02T01:50:29;101764.34;;;15.17;54.60
72116;BME280;59991;52.140;5.428;2022-09-02T01:51:02;101771.00;;;15.16;54.36
72116;BME280;59991;52.140;5.428;2022-09-02T01:51:34;101772.56;;;15.13;54.62
72116;BME280;59991;52.140;5.428;2022-09-02T01:52:07;101764.69;;;15.12;53.62
72116;BME280;59991;52.140;5.428;2022-09-02T01:52:38;101770.56;;;15.10;53.98
72116;BME280;59991;52.140;5.428;2022-09-02T01:53:10;101765.84;;;15.07;54.18
72116;BME280;59991;52.140;5.428;2022-09-02T01:53:42;101772.13;;;15.08;54.48
72116;BME280;59991;52.140;5.428;2022-09-02T01:54:13;101761.53;;;15.06;54.11
72116;BME280;59991;52.140;5.428;2022-09-02T01:54:46;101770.56;;;15.10;54.51
72116;BME280;59991;52.140;5.428;2022-09-02T01:55:18;101759.19;;;15.08;55.25
72116;BME280;59991;52.140;5.428;2022-09-02T01:55:49;101766.66;;;15.11;54.83
72116;BME280;59991;52.140;5.428;2022-09-02T01:56:20;101770.56;;;15.10;54.49
72116;BME280;59991;52.140;5.428;2022-09-02T01:56:52;101762.75;;;15.12;54.94
72116;BME280;59991;52.140;5.428;2022-09-02T01:57:23;101764.69;;;15.12;54.48
72116;BME280;59991;52.140;5.428;2022-09-02T01:57:55;101764.69;;;15.12;54.96
72116;BME280;59991;52.140;5.428;2022-09-02T01:58:27;101767.84;;;15.14;55.22
72116;BME280;59991;52.140;5.428;2022-09-02T01:58:59;101775.31;;;15.13;54.92
72116;BME280;59991;52.140;5.428;2022-09-02T01:59:30;101763.16;;;15.14;55.15
72116;BME280;59991;52.140;5.428;2022-09-02T02:00:05;101765.91;;;15.14;55.01
72116;BME280;59991;52.140;5.428;2022-09-02T02:00:37;101764.31;;;15.13;54.59
72116;BME280;59991;52.140;5.428;2022-09-02T02:01:08;101760.78;;;15.13;55.08
72116;BME280;59991;52.140;5.428;2022-09-02T02:01:40;101765.50;;;15.12;55.22
72116;BME280;59991;52.140;5.428;2022-09-02T02:02:12;101764.31;;;15.13;54.63
72116;BME280;59991;52.140;5.428;2022-09-02T02:02:44;101765.50;;;15.12;54.89
72116;BME280;59991;52.140;5.428;2022-09-02T02:03:16;101756.84;;;15.10;55.07
72116;BME280;59991;52.140;5.428;2022-09-02T02:04:08;101760.38;;;15.11;54.76
72116;BME280;59991;52.140;5.428;2022-09-02T02:04:44;101758.81;;;15.10;54.42
72116;BME280;59991;52.140;5.428;2022-09-02T02:05:17;101753.31;;;15.10;54.82
72116;BME280;59991;52.140;5.428;2022-09-02T02:05:48;101757.59;;;15.07;54.67
72116;BME280;59991;52.140;5.428;2022-09-02T02:06:20;101763.13;;;15.11;55.15
72116;BME280;59991;52.140;5.428;2022-09-02T02:06:51;101756.47;;;15.12;54.92
72116;BME280;59991;52.140;5.428;2022-09-02T02:07:24;101761.16;;;15.11;55.33
72116;BME280;59991;52.140;5.428;2022-09-02T02:07:56;101758.03;;;15.13;55.40
72116;BME280;59991;52.140;5.428;2022-09-02T02:08:27;101759.59;;;15.10;55.47
72116;BME280;59991;52.140;5.428;2022-09-02T02:08:59;101758.03;;;15.13;55.40
72116;BME280;59991;52.140;5.428;2022-09-02T02:09:30;101763.91;;;15.11;55.08
72116;BME280;59991;52.140;5.428;2022-09-02T02:10:03;101756.44;;;15.08;54.90
72116;BME280;59991;52.140;5.428;2022-09-02T02:10:35;101752.13;;;15.07;55.19
72116;BME280;59991;52.140;5.428;2022-09-02T02:11:07;101765.09;;;15.10;55.18
72116;BME280;59991;52.140;5.428;2022-09-02T02:11:39;101756.44;;;15.08;55.10
72116;BME280;59991;52.140;5.428;2022-09-02T02:12:11;101756.44;;;15.08;54.41
72116;BME280;59991;52.140;5.428;2022-09-02T02:12:42;101751.31;;;15.07;54.63
72116;BME280;59991;52.140;5.428;2022-09-02T02:13:14;101756.03;;;15.06;55.36
72116;BME280;59991;52.140;5.428;2022-09-02T02:13:46;101766.63;;;15.08;55.09
72116;BME280;59991;52.140;5.428;2022-09-02T02:14:18;101756.00;;;15.03;54.74
72116;BME280;59991;52.140;5.428;2022-09-02T02:14:50;101758.38;;;15.04;54.82
72116;BME280;59991;52.140;5.428;2022-09-02T02:15:23;101757.97;;;15.02;55.06
72116;BME280;59991;52.140;5.428;2022-09-02T02:15:53;101755.63;;;15.01;55.24
72116;BME280;59991;52.140;5.428;2022-09-02T02:16:25;101754.84;;;15.00;55.33
72116;BME280;59991;52.140;5.428;2022-09-02T02:16:57;101762.28;;;15.03;55.58
72116;BME280;59991;52.140;5.428;2022-09-02T02:17:28;101752.09;;;15.04;55.28
72116;BME280;59991;52.140;5.428;2022-09-02T02:18:00;101760.34;;;15.04;55.55
72116;BME280;59991;52.140;5.428;2022-09-02T02:18:31;101754.84;;;15.00;54.76
72116;BME280;59991;52.140;5.428;2022-09-02T02:19:03;101758.38;;;15.01;55.38
72116;BME280;59991;52.140;5.428;2022-09-02T02:19:35;101760.34;;;15.00;55.15
72116;BME280;59991;52.140;5.428;2022-09-02T02:20:08;101761.13;;;15.01;55.17
72116;BME280;59991;52.140;5.428;2022-09-02T02:20:39;101760.34;;;15.00;55.28
72116;BME280;59991;52.140;5.428;2022-09-02T02:21:15;101763.09;;;15.00;55.75
72116;BME280;59991;52.140;5.428;2022-09-02T02:21:46;101764.63;;;15.01;56.08
72116;BME280;59991;52.140;5.428;2022-09-02T02:22:18;101756.81;;;15.00;55.45
72116;BME280;59991;52.140;5.428;2022-09-02T02:22:51;101756.81;;;15.00;55.19
72116;BME280;59991;52.140;5.428;2022-09-02T02:23:23;101757.97;;;14.99;55.25
72116;BME280;59991;52.140;5.428;2022-09-02T02:23:56;101761.88;;;15.01;55.13
72116;BME280;59991;52.140;5.428;2022-09-02T02:24:27;101751.69;;;14.98;55.60
72116;BME280;59991;52.140;5.428;2022-09-02T02:24:59;101757.59;;;15.00;55.22
72116;BME280;59991;52.140;5.428;2022-09-02T02:25:31;101760.34;;;15.00;55.08
72116;BME280;59991;52.140;5.428;2022-09-02T02:26:03;101754.44;;;14.98;54.94
72116;BME280;59991;52.140;5.428;2022-09-02T02:26:35;101762.31;;;15.00;55.52
72116;BME280;59991;52.140;5.428;2022-09-02T02:27:06;101755.63;;;14.97;55.67
72116;BME280;59991;52.140;5.428;2022-09-02T02:27:38;101759.53;;;14.96;55.20
72116;BME280;59991;52.140;5.428;2022-09-02T02:28:13;101757.94;;;14.95;55.86
72116;BME280;59991;52.140;5.428;2022-09-02T02:28:45;101758.75;;;14.96;55.69
72116;BME280;59991;52.140;5.428;2022-09-02T02:29:16;101753.25;;;14.96;55.43
72116;BME280;59991;52.140;5.428;2022-09-02T02:29:48;101751.28;;;14.96;55.57
72116;BME280;59991;52.140;5.428;2022-09-02T02:30:19;101759.53;;;14.96;54.97
72116;BME280;59991;52.140;5.428;2022-09-02T02:30:51;101752.06;;;14.93;54.93
72116;BME280;59991;52.140;5.428;2022-09-02T02:31:22;101754.00;;;14.93;55.58
72116;BME280;59991;52.140;5.428;2022-09-02T02:32:13;101751.66;;;14.91;55.59
72116;BME280;59991;52.140;5.428;2022-09-02T02:32:46;101751.66;;;14.91;55.53
72116;BME280;59991;52.140;5.428;2022-09-02T02:33:17;101756.34;;;14.91;55.23
72116;BME280;59991;52.140;5.428;2022-09-02T02:33:49;101747.72;;;14.92;55.54
72116;BME280;59991;52.140;5.428;2022-09-02T02:34:21;101758.72;;;14.92;55.24
72116;BME280;59991;52.140;5.428;2022-09-02T02:34:53;101746.91;;;14.88;55.26
72116;BME280;59991;52.140;5.428;2022-09-02T02:35:24;101751.25;;;14.89;55.46
72116;BME280;59991;52.140;5.428;2022-09-02T02:35:56;101752.03;;;14.90;55.38
72116;BME280;59991;52.140;5.428;2022-09-02T02:36:28;101744.94;;;14.85;55.89
72116;BME280;59991;52.140;5.428;2022-09-02T02:37:00;101753.59;;;14.91;55.53
72116;BME280;59991;52.140;5.428;2022-09-02T02:37:32;101752.03;;;14.90;55.83
72116;BME280;59991;52.140;5.428;2022-09-02T02:38:04;101750.06;;;14.90;55.74
72116;BME280;59991;52.140;5.428;2022-09-02T02:38:37;101752.44;;;14.92;56.16
72116;BME280;59991;52.140;5.428;2022-09-02T02:39:10;101757.13;;;14.91;56.09
72116;BME280;59991;52.140;5.428;2022-09-02T02:39:43;101756.34;;;14.91;55.61
72116;BME280;59991;52.140;5.428;2022-09-02T02:40:19;101757.13;;;14.91;55.93
72116;BME280;59991;52.140;5.428;2022-09-02T02:40:55;101747.31;;;14.86;55.95
72116;BME280;59991;52.140;5.428;2022-09-02T02:41:30;101756.34;;;14.91;56.19
72116;BME280;59991;52.140;5.428;2022-09-02T02:42:02;101748.50;;;14.89;55.70
72116;BME280;59991;52.140;5.428;2022-09-02T02:42:34;101752.03;;;14.90;56.24
72116;BME280;59991;52.140;5.428;2022-09-02T02:43:05;101755.56;;;14.90;56.27
72116;BME280;59991;52.140;5.428;2022-09-02T02:43:37;101749.28;;;14.90;55.95
72116;BME280;59991;52.140;5.428;2022-09-02T02:44:09;101752.41;;;14.88;56.01
72116;BME280;59991;52.140;5.428;2022-09-02T02:44:41;101752.78;;;14.86;55.99
72116;BME280;59991;52.140;5.428;2022-09-02T02:45:12;101753.19;;;14.85;55.92
72116;BME280;59991;52.140;5.428;2022-09-02T02:45:45;101752.03;;;14.90;56.24
72116;BME280;59991;52.140;5.428;2022-09-02T02:46:17;101740.22;;;14.85;56.30
72116;BME280;59991;52.140;5.428;2022-09-02T02:46:49;101754.38;;;14.88;56.28
72116;BME280;59991;52.140;5.428;2022-09-02T02:47:21;101749.25;;;14.86;56.17
72116;BME280;59991;52.140;5.428;2022-09-02T02:47:52;101751.25;;;14.89;55.69
72116;BME280;59991;52.140;5.428;2022-09-02T02:48:24;101750.47;;;14.89;56.05
72116;BME280;59991;52.140;5.428;2022-09-02T02:48:59;101752.78;;;14.86;56.30
72116;BME280;59991;52.140;5.428;2022-09-02T02:49:30;101750.84;;;14.87;56.51
72116;BME280;59991;52.140;5.428;2022-09-02T02:50:02;101750.84;;;14.87;56.36
72116;BME280;59991;52.140;5.428;2022-09-02T02:50:33;101745.72;;;14.85;56.67
72116;BME280;59991;52.140;5.428;2022-09-02T02:51:05;101750.03;;;14.86;56.34
72116;BME280;59991;52.140;5.428;2022-09-02T02:51:37;101752.78;;;14.86;55.94
72116;BME280;59991;52.140;5.428;2022-09-02T02:52:10;101747.69;;;14.85;56.72
72116;BME280;59991;52.140;5.428;2022-09-02T02:52:42;101750.84;;;14.87;56.72
72116;BME280;59991;52.140;5.428;2022-09-02T02:53:15;101746.91;;;14.84;56.64
72116;BME280;59991;52.140;5.428;2022-09-02T02:53:47;101741.41;;;14.84;56.19
72116;BME280;59991;52.140;5.428;2022-09-02T02:54:19;101748.09;;;14.87;56.11
72116;BME280;59991;52.140;5.428;2022-09-02T02:54:51;101742.97;;;14.85;56.50
72116;BME280;59991;52.140;5.428;2022-09-02T02:55:24;101746.50;;;14.86;56.59
72116;BME280;59991;52.140;5.428;2022-09-02T02:55:56;101746.09;;;14.84;56.43
72116;BME280;59991;52.140;5.428;2022-09-02T02:56:28;101745.31;;;14.83;56.32
72116;BME280;59991;52.140;5.428;2022-09-02T02:57:01;101744.53;;;14.83;56.40
72116;BME280;59991;52.140;5.428;2022-09-02T02:57:51;101745.69;;;14.82;55.86
72116;BME280;59991;52.140;5.428;2022-09-02T02:58:22;101749.66;;;14.81;56.29
72116;BME280;59991;52.140;5.428;2022-09-02T02:58:53;101746.13;;;14.80;56.46
72116;BME280;59991;52.140;5.428;2022-09-02T02:59:43;101739.44;;;14.81;56.18
72116;BME280;59991;52.140;5.428;2022-09-02T03:00:21;101742.97;;;14.82;56.56
72116;BME280;59991;52.140;5.428;2022-09-02T03:00:53;101741.41;;;14.81;56.15
72116;BME280;59991;52.140;5.428;2022-09-02T03:01:42;101744.53;;;14.79;56.45